Time;durP1;ratioP1;P1;durP2;ratioP2;P2;SDS_P1;SDS_P2;PMS_P1;PMS_P2;Temp;Humidity;BMP_temperature;BMP_pressure;BME280_temperature;BME280_humidity;BME280_pressure;Samples;Min_cycle;Max_cycle;Signal;HPM_P1;HPM_P2
2022/06/10 00:00:15;;;;;;;3.17;1.08;;;;;;;;;;5055473;28;20496;-64
2022/06/10 00:02:43;;;;;;;2.17;0.80;;;;;;;;;;5057027;28;20094;-64
2022/06/10 00:05:13;;;;;;;0.77;0.65;;;;;;;;;;5075608;28;20441;-64
2022/06/10 00:07:39;;;;;;;1.98;1.00;;;;;;;;;;5074857;28;20027;-64
2022/06/10 00:10:06;;;;;;;3.08;0.85;;;;;;;;;;5075482;28;20028;-64
2022/06/10 00:12:32;;;;;;;4.22;0.90;;;;;;;;;;5075580;28;20514;-64
2022/06/10 00:14:58;;;;;;;2.35;0.85;;;;;;;;;;5075382;28;20033;-64
2022/06/10 00:17:24;;;;;;;2.95;0.70;;;;;;;;;;5056787;28;20051;-64
2022/06/10 00:19:50;;;;;;;3.20;0.75;;;;;;;;;;5055211;28;20060;-64
2022/06/10 00:22:16;;;;;;;5.47;1.45;;;;;;;;;;5055381;28;20377;-64
2022/06/10 00:24:43;;;;;;;2.65;1.02;;;;;;;;;;5055413;28;20031;-64
2022/06/10 00:27:09;;;;;;;1.70;0.75;;;;;;;;;;5055300;28;20029;-64
2022/06/10 00:29:35;;;;;;;3.63;1.05;;;;;;;;;;5066930;28;20036;-64
2022/06/10 00:32:01;;;;;;;3.80;1.08;;;;;;;;;;5074652;28;20058;-64
2022/06/10 00:34:27;;;;;;;2.33;1.05;;;;;;;;;;5075191;28;20166;-64
2022/06/10 00:36:53;;;;;;;2.67;1.20;;;;;;;;;;5075171;28;20472;-64
2022/06/10 00:39:19;;;;;;;1.52;1.10;;;;;;;;;;5075102;28;20488;-64
2022/06/10 00:41:45;;;;;;;3.35;1.20;;;;;;;;;;5075143;28;20412;-64
2022/06/10 00:44:30;;;;;;;3.67;1.20;;;;;;;;;;5074850;28;20025;-64
2022/06/10 00:46:57;;;;;;;5.68;1.00;;;;;;;;;;5074438;28;20025;-64
2022/06/10 00:49:24;;;;;;;2.38;0.98;;;;;;;;;;5074861;28;20506;-64
2022/06/10 00:51:51;;;;;;;3.25;1.02;;;;;;;;;;5069370;28;20428;-64
2022/06/10 00:54:20;;;;;;;2.75;1.30;;;;;;;;;;5054784;28;20037;-64
2022/06/10 00:56:48;;;;;;;1.77;1.55;;;;;;;;;;5054523;28;20040;-63
2022/06/10 00:59:20;;;;;;;3.00;1.20;;;;;;;;;;5054108;28;20033;-63
2022/06/10 01:01:47;;;;;;;4.60;1.42;;;;;;;;;;5055683;28;20025;-63
2022/06/10 01:04:13;;;;;;;1.83;0.80;;;;;;;;;;5068679;28;20143;-63
2022/06/10 01:06:39;;;;;;;4.22;1.25;;;;;;;;;;5074690;28;20128;-63
2022/06/10 01:09:05;;;;;;;3.22;1.20;;;;;;;;;;5074305;28;20031;-63
2022/06/10 01:11:34;;;;;;;4.78;1.10;;;;;;;;;;5074576;28;20032;-63
2022/06/10 01:14:04;;;;;;;3.67;1.20;;;;;;;;;;5073636;28;20098;-63
2022/06/10 01:16:48;;;;;;;3.83;1.20;;;;;;;;;;5074326;28;20024;-63
2022/06/10 01:19:17;;;;;;;3.83;1.30;;;;;;;;;;5074112;28;20032;-64
2022/06/10 01:22:02;;;;;;;2.35;1.17;;;;;;;;;;5074465;28;20035;-64
2022/06/10 01:24:42;;;;;;;2.13;1.50;;;;;;;;;;5074315;28;20543;-63
2022/06/10 01:30:35;;;;;;;3.72;1.23;;;;;;;;;;5053746;28;20037;-63
2022/06/10 01:33:01;;;;;;;4.38;1.20;;;;;;;;;;5048342;28;20053;-64
2022/06/10 01:35:36;;;;;;;2.95;1.20;;;;;;;;;;5054058;28;20025;-64
2022/06/10 01:38:13;;;;;;;4.43;1.40;;;;;;;;;;5054020;28;20369;-64
2022/06/10 01:40:55;;;;;;;4.45;1.25;;;;;;;;;;5054017;28;20029;-64
2022/06/10 01:43:27;;;;;;;3.78;1.20;;;;;;;;;;5053744;28;20504;-64
2022/06/10 01:45:57;;;;;;;3.17;1.40;;;;;;;;;;5056774;28;20020;-64
2022/06/10 01:48:33;;;;;;;1.50;1.10;;;;;;;;;;5053859;28;20144;-64
2022/06/10 01:51:18;;;;;;;2.38;1.13;;;;;;;;;;5053698;28;20366;-64
2022/06/10 01:53:48;;;;;;;2.53;1.17;;;;;;;;;;5053568;28;20029;-64
2022/06/10 01:56:18;;;;;;;3.30;1.42;;;;;;;;;;5053446;28;20068;-63
2022/06/10 01:58:57;;;;;;;2.20;1.27;;;;;;;;;;5053126;28;20504;-63
2022/06/10 02:01:27;;;;;;;5.22;1.30;;;;;;;;;;5053511;28;20040;-63
2022/06/10 02:04:06;;;;;;;2.47;1.30;;;;;;;;;;5064892;28;20111;-63
2022/06/10 02:06:36;;;;;;;2.55;1.05;;;;;;;;;;5072282;28;20400;-63
2022/06/10 02:09:07;;;;;;;1.25;0.98;;;;;;;;;;5073096;28;20027;-63
2022/06/10 02:11:34;;;;;;;1.45;0.80;;;;;;;;;;5073075;28;20090;-63
2022/06/10 02:14:13;;;;;;;3.72;0.82;;;;;;;;;;5072816;28;20082;-63
2022/06/10 02:16:41;;;;;;;5.20;1.75;;;;;;;;;;5073368;28;20032;-63
2022/06/10 02:19:07;;;;;;;1.98;0.95;;;;;;;;;;5072746;28;20059;-63
2022/06/10 02:21:39;;;;;;;4.00;1.10;;;;;;;;;;5073039;28;20038;-64
2022/06/10 02:24:09;;;;;;;1.75;0.90;;;;;;;;;;5072262;28;20031;-64
2022/06/10 02:26:37;;;;;;;3.38;0.82;;;;;;;;;;5073042;28;20098;-64
2022/06/10 02:29:06;;;;;;;1.73;1.10;;;;;;;;;;5072834;28;20023;-64
2022/06/10 02:31:35;;;;;;;1.92;1.08;;;;;;;;;;5072999;28;20029;-64
2022/06/10 02:34:02;;;;;;;1.52;1.00;;;;;;;;;;5072968;28;20028;-64
2022/06/10 02:36:49;;;;;;;2.80;0.95;;;;;;;;;;5072803;28;20392;-64
2022/06/10 02:39:31;;;;;;;1.58;0.68;;;;;;;;;;5072851;28;20436;-64
2022/06/10 02:41:57;;;;;;;1.52;0.60;;;;;;;;;;5072572;28;20035;-64
2022/06/10 02:44:27;;;;;;;1.02;0.65;;;;;;;;;;5072649;28;20484;-64
2022/06/10 02:47:01;;;;;;;1.13;0.50;;;;;;;;;;5057289;28;20400;-64
2022/06/10 02:49:28;;;;;;;2.65;0.55;;;;;;;;;;5052407;28;20568;-64
2022/06/10 02:51:54;;;;;;;0.77;0.60;;;;;;;;;;5055710;28;20549;-64
2022/06/10 02:54:29;;;;;;;1.17;0.50;;;;;;;;;;5063098;28;20124;-64
2022/06/10 02:56:55;;;;;;;2.60;1.00;;;;;;;;;;5065564;28;20035;-64
2022/06/10 03:02:12;;;;;;;2.08;0.80;;;;;;;;;;5063694;28;20107;-64
2022/06/10 03:05:01;;;;;;;4.30;1.43;;;;;;;;;;5064245;28;20114;-64
2022/06/10 03:07:30;;;;;;;2.08;1.00;;;;;;;;;;5055392;28;20111;-64
2022/06/10 03:10:01;;;;;;;1.88;0.90;;;;;;;;;;5069212;28;20024;-64
2022/06/10 03:12:30;;;;;;;2.45;1.20;;;;;;;;;;5053084;28;20036;-64
2022/06/10 03:15:27;;;;;;;3.25;1.17;;;;;;;;;;5051477;28;20037;-64
2022/06/10 03:18:10;;;;;;;3.40;1.33;;;;;;;;;;5058396;28;20028;-64
2022/06/10 03:20:52;;;;;;;3.23;1.57;;;;;;;;;;5065625;28;20032;-64
2022/06/10 03:23:33;;;;;;;3.20;1.90;;;;;;;;;;5068366;28;20024;-64
2022/06/10 03:26:03;;;;;;;3.30;1.58;;;;;;;;;;5069195;28;20487;-64
2022/06/10 03:28:29;;;;;;;7.22;2.03;;;;;;;;;;5068649;28;20017;-64
2022/06/10 03:30:57;;;;;;;6.40;2.35;;;;;;;;;;5070205;28;20036;-64
2022/06/10 03:33:29;;;;;;;5.65;1.67;;;;;;;;;;5072008;28;20082;-64
2022/06/10 03:36:01;;;;;;;6.15;1.70;;;;;;;;;;5070944;28;20408;-64
2022/06/10 03:38:28;;;;;;;4.43;1.70;;;;;;;;;;5071848;28;20028;-64
2022/06/10 03:40:56;;;;;;;6.72;1.75;;;;;;;;;;5071584;28;20511;-64
2022/06/10 03:43:24;;;;;;;8.50;2.10;;;;;;;;;;5072175;28;20029;-64
2022/06/10 03:45:59;;;;;;;5.22;1.80;;;;;;;;;;5065704;28;20045;-64
2022/06/10 03:48:26;;;;;;;8.60;2.30;;;;;;;;;;5071935;28;20035;-64
2022/06/10 03:50:53;;;;;;;6.05;2.50;;;;;;;;;;5059546;28;20060;-64
2022/06/10 03:53:20;;;;;;;6.72;2.58;;;;;;;;;;5051908;28;20491;-64
2022/06/10 03:55:47;;;;;;;4.60;2.60;;;;;;;;;;5051466;28;20087;-64
2022/06/10 03:58:13;;;;;;;5.03;2.00;;;;;;;;;;5052636;28;20056;-64
2022/06/10 04:00:40;;;;;;;5.93;2.15;;;;;;;;;;5064663;28;20033;-64
2022/06/10 04:03:06;;;;;;;8.18;2.00;;;;;;;;;;5054554;28;20025;-64
2022/06/10 04:05:32;;;;;;;5.20;1.67;;;;;;;;;;5051752;28;20028;-64
2022/06/10 04:07:58;;;;;;;4.50;1.77;;;;;;;;;;5060947;28;20021;-64
2022/06/10 04:10:26;;;;;;;7.22;2.08;;;;;;;;;;5069985;28;20024;-64
2022/06/10 04:12:52;;;;;;;6.05;2.08;;;;;;;;;;5071833;28;20461;-64
2022/06/10 04:15:18;;;;;;;5.22;2.17;;;;;;;;;;5069426;28;20033;-64
2022/06/10 04:17:48;;;;;;;9.55;2.00;;;;;;;;;;5066477;28;20033;-64
2022/06/10 04:20:17;;;;;;;4.78;2.00;;;;;;;;;;5061815;28;20112;-64
2022/06/10 04:22:43;;;;;;;6.47;2.03;;;;;;;;;;5049567;28;20109;-64
2022/06/10 04:25:10;;;;;;;7.22;2.00;;;;;;;;;;5054108;28;20128;-64
2022/06/10 04:27:36;;;;;;;7.25;2.10;;;;;;;;;;5053696;28;20054;-64
2022/06/10 04:30:04;;;;;;;5.93;2.53;;;;;;;;;;5051567;28;20056;-64
2022/06/10 04:32:30;;;;;;;5.53;2.08;;;;;;;;;;5057742;28;20032;-64
2022/06/10 04:34:56;;;;;;;5.78;2.30;;;;;;;;;;5066133;28;20484;-63
2022/06/10 04:37:23;;;;;;;4.60;1.60;;;;;;;;;;5061465;28;20037;-63
2022/06/10 04:39:49;;;;;;;4.15;2.25;;;;;;;;;;5073767;28;20020;-63
2022/06/10 04:42:15;;;;;;;7.28;2.20;;;;;;;;;;5070054;28;20017;-63
2022/06/10 04:44:41;;;;;;;5.38;1.70;;;;;;;;;;5067447;28;20024;-63
2022/06/10 04:47:07;;;;;;;5.05;2.20;;;;;;;;;;5075371;28;20056;-63
2022/06/10 04:49:35;;;;;;;9.38;2.10;;;;;;;;;;5068189;28;20032;-63
2022/06/10 04:52:02;;;;;;;9.63;2.10;;;;;;;;;;5066925;28;20113;-63
2022/06/10 04:54:28;;;;;;;7.38;2.53;;;;;;;;;;5060779;28;20024;-64
2022/06/10 04:56:54;;;;;;;5.15;2.00;;;;;;;;;;5056690;28;20119;-63
2022/06/10 04:59:22;;;;;;;7.63;1.77;;;;;;;;;;5054905;28;20057;-63
2022/06/10 05:01:48;;;;;;;9.07;2.28;;;;;;;;;;5066708;28;20036;-63
2022/06/10 05:04:15;;;;;;;11.80;2.90;;;;;;;;;;5081060;28;20063;-63
2022/06/10 05:06:41;;;;;;;10.85;2.35;;;;;;;;;;5058634;28;20020;-63
2022/06/10 05:09:07;;;;;;;11.43;2.15;;;;;;;;;;5060959;28;20028;-64
2022/06/10 05:11:33;;;;;;;6.15;2.53;;;;;;;;;;5068905;28;20051;-64
2022/06/10 05:13:59;;;;;;;9.13;2.75;;;;;;;;;;5060643;28;20025;-64
2022/06/10 05:16:25;;;;;;;5.20;3.05;;;;;;;;;;5061080;28;20029;-64
2022/06/10 05:18:51;;;;;;;9.18;2.40;;;;;;;;;;5071108;28;20179;-64
2022/06/10 05:21:18;;;;;;;9.38;2.38;;;;;;;;;;5056376;28;20068;-64
2022/06/10 05:23:46;;;;;;;11.65;2.70;;;;;;;;;;5053566;28;20027;-64
2022/06/10 05:26:13;;;;;;;12.20;3.45;;;;;;;;;;5053395;28;20492;-64
2022/06/10 05:28:40;;;;;;;6.60;2.10;;;;;;;;;;5053091;28;20412;-64
2022/06/10 05:31:06;;;;;;;12.38;3.40;;;;;;;;;;5053141;28;20078;-64
2022/06/10 05:34:44;;;;;;;8.68;2.80;;;;;;;;;;5053293;28;20056;-64
2022/06/10 05:36:18;;;;;;;10.63;2.60;;;;;;;;;;5052800;28;20028;-63
2022/06/10 05:38:44;;;;;;;8.63;2.70;;;;;;;;;;5053154;28;20389;-64
2022/06/10 05:43:55;;;;;;;7.72;2.63;;;;;;;;;;5057190;28;20033;-63
2022/06/10 05:46:22;;;;;;;10.38;3.22;;;;;;;;;;5063356;28;20029;-63
2022/06/10 05:48:48;;;;;;;10.52;2.50;;;;;;;;;;5056066;28;20029;-63
2022/06/10 05:51:14;;;;;;;11.45;3.00;;;;;;;;;;5068309;28;20373;-63
2022/06/10 05:53:40;;;;;;;7.13;2.78;;;;;;;;;;5056380;28;20036;-63
2022/06/10 05:56:06;;;;;;;7.65;2.55;;;;;;;;;;5053559;28;20033;-63
2022/06/10 05:58:33;;;;;;;6.35;2.00;;;;;;;;;;5053883;28;20467;-63
2022/06/10 06:00:59;;;;;;;7.68;2.50;;;;;;;;;;5067408;28;20031;-64
2022/06/10 06:03:25;;;;;;;11.88;2.42;;;;;;;;;;5077062;28;20162;-63
2022/06/10 06:05:51;;;;;;;6.68;2.65;;;;;;;;;;5060697;28;20021;-63
2022/06/10 06:08:17;;;;;;;10.48;2.15;;;;;;;;;;5060755;28;20028;-70
2022/06/10 06:10:43;;;;;;;10.45;2.75;;;;;;;;;;5072900;28;20081;-67
2022/06/10 06:13:10;;;;;;;11.23;2.25;;;;;;;;;;5071885;28;20039;-67
2022/06/10 06:15:36;;;;;;;10.05;2.55;;;;;;;;;;5071912;28;20472;-67
2022/06/10 06:18:03;;;;;;;11.85;2.35;;;;;;;;;;5059554;28;20400;-68
2022/06/10 06:20:29;;;;;;;11.55;2.20;;;;;;;;;;5067115;28;20511;-66
2022/06/10 06:22:55;;;;;;;7.20;2.80;;;;;;;;;;5051624;28;20024;-66
2022/06/10 06:25:21;;;;;;;15.07;2.90;;;;;;;;;;5052142;28;20029;-66
2022/06/10 06:27:48;;;;;;;10.68;2.65;;;;;;;;;;5051884;28;20469;-66
2022/06/10 06:30:19;;;;;;;12.00;2.65;;;;;;;;;;5052222;28;20488;-66
2022/06/10 06:32:46;;;;;;;7.57;2.40;;;;;;;;;;5061889;28;20028;-66
2022/06/10 06:35:12;;;;;;;11.75;2.97;;;;;;;;;;5057568;28;20024;-66
2022/06/10 06:37:39;;;;;;;13.52;2.28;;;;;;;;;;5058118;28;20025;-66
2022/06/10 06:40:05;;;;;;;8.60;2.95;;;;;;;;;;5053452;28;20103;-66
2022/06/10 06:42:31;;;;;;;12.70;3.40;;;;;;;;;;5066350;28;20028;-66
2022/06/10 06:45:01;;;;;;;8.68;2.58;;;;;;;;;;5054147;28;20021;-66
2022/06/10 06:47:27;;;;;;;8.70;2.65;;;;;;;;;;5067896;28;20428;-66
2022/06/10 06:49:54;;;;;;;8.68;2.78;;;;;;;;;;5068598;28;20024;-66
2022/06/10 06:52:20;;;;;;;9.50;2.40;;;;;;;;;;5058380;28;20020;-66
2022/06/10 06:54:46;;;;;;;9.88;2.97;;;;;;;;;;5061794;28;20024;-66
2022/06/10 06:57:12;;;;;;;11.27;2.97;;;;;;;;;;5064910;28;20154;-66
2022/06/10 06:59:38;;;;;;;8.75;2.35;;;;;;;;;;5053949;28;20039;-66
2022/06/10 07:02:05;;;;;;;9.88;2.50;;;;;;;;;;5053083;28;20074;-66
2022/06/10 07:04:31;;;;;;;11.93;2.35;;;;;;;;;;5066901;28;20056;-66
2022/06/10 07:06:57;;;;;;;11.15;3.50;;;;;;;;;;5055732;28;20266;-66
2022/06/10 07:09:23;;;;;;;11.93;2.60;;;;;;;;;;5062174;28;20431;-66
2022/06/10 07:11:49;;;;;;;9.60;2.95;;;;;;;;;;5057415;28;20053;-66
2022/06/10 07:14:15;;;;;;;8.80;2.42;;;;;;;;;;5053721;28;20024;-66
2022/06/10 07:16:41;;;;;;;9.18;2.65;;;;;;;;;;5060070;28;20503;-66
2022/06/10 07:19:08;;;;;;;10.75;2.65;;;;;;;;;;5066839;28;20039;-66
2022/06/10 07:21:34;;;;;;;13.77;3.38;;;;;;;;;;5054953;28;20061;-66
2022/06/10 07:24:00;;;;;;;11.50;2.92;;;;;;;;;;5062925;28;20369;-66
2022/06/10 07:26:27;;;;;;;10.68;2.83;;;;;;;;;;5063680;28;20523;-66
2022/06/10 07:28:53;;;;;;;8.88;2.28;;;;;;;;;;5062829;28;20099;-66
2022/06/10 07:31:20;;;;;;;12.05;2.95;;;;;;;;;;5054093;28;20044;-66
2022/06/10 07:33:46;;;;;;;9.50;2.83;;;;;;;;;;5061903;28;20055;-66
2022/06/10 07:36:12;;;;;;;11.77;3.13;;;;;;;;;;5051242;28;20116;-66
2022/06/10 07:38:38;;;;;;;8.55;3.22;;;;;;;;;;5065065;28;20104;-66
2022/06/10 07:43:51;;;;;;;8.07;2.83;;;;;;;;;;5047334;28;20029;-66
2022/06/10 07:46:19;;;;;;;7.45;2.55;;;;;;;;;;5030536;28;20061;-66
2022/06/10 07:48:45;;;;;;;12.32;3.33;;;;;;;;;;5044942;28;20288;-66
2022/06/10 07:51:11;;;;;;;6.78;2.10;;;;;;;;;;5048080;28;20132;-66
2022/06/10 07:53:41;;;;;;;9.85;3.00;;;;;;;;;;5046481;28;20679;-66
2022/06/10 07:56:07;;;;;;;9.60;2.78;;;;;;;;;;5047548;28;20057;-66
2022/06/10 07:58:34;;;;;;;7.28;1.70;;;;;;;;;;5047164;28;20049;-66
2022/06/10 08:01:00;;;;;;;10.23;2.20;;;;;;;;;;5047038;28;20040;-66
2022/06/10 08:03:26;;;;;;;7.53;2.50;;;;;;;;;;5046032;28;20063;-66
2022/06/10 08:05:52;;;;;;;8.10;2.05;;;;;;;;;;5045221;28;20055;-66
2022/06/10 08:08:20;;;;;;;10.27;2.00;;;;;;;;;;5047305;28;20439;-66
2022/06/10 08:10:46;;;;;;;9.52;3.05;;;;;;;;;;5050855;28;20044;-66
2022/06/10 08:13:13;;;;;;;7.93;2.60;;;;;;;;;;5050824;28;20037;-66
2022/06/10 08:15:40;;;;;;;8.38;2.08;;;;;;;;;;5051040;28;20068;-66
2022/06/10 08:18:07;;;;;;;8.18;2.70;;;;;;;;;;5052607;28;20156;-66
2022/06/10 08:23:23;;;;;;;5.57;2.38;;;;;;;;;;5065517;28;20025;-66
2022/06/10 08:25:49;;;;;;;6.70;2.25;;;;;;;;;;5064337;28;20123;-66
2022/06/10 08:28:15;;;;;;;10.63;2.30;;;;;;;;;;5062291;28;20029;-66
2022/06/10 08:30:42;;;;;;;10.70;2.38;;;;;;;;;;5061980;28;20094;-66
2022/06/10 08:33:08;;;;;;;8.02;2.03;;;;;;;;;;5057143;28;20437;-66
2022/06/10 08:35:35;;;;;;;7.97;2.53;;;;;;;;;;5059762;28;20115;-66
2022/06/10 08:38:02;;;;;;;4.10;1.60;;;;;;;;;;5059176;28;20512;-66
2022/06/10 08:40:40;;;;;;;5.78;1.67;;;;;;;;;;5058372;28;20025;-66
2022/06/10 08:43:33;;;;;;;3.85;1.27;;;;;;;;;;5060336;28;20271;-66
2022/06/10 08:46:05;;;;;;;2.30;1.48;;;;;;;;;;5054766;28;20124;-66
2022/06/10 08:48:41;;;;;;;5.35;1.80;;;;;;;;;;5064238;28;20107;-66
2022/06/10 08:51:17;;;;;;;4.13;1.55;;;;;;;;;;5060374;28;20032;-66
2022/06/10 08:53:55;;;;;;;5.60;1.67;;;;;;;;;;5054718;28;20091;-66
2022/06/10 08:56:26;;;;;;;5.70;1.92;;;;;;;;;;5057348;28;20119;-66
2022/06/10 08:58:53;;;;;;;6.97;1.73;;;;;;;;;;5054474;28;20493;-66
2022/06/10 09:01:22;;;;;;;5.03;2.10;;;;;;;;;;5054060;28;20029;-66
2022/06/10 09:03:52;;;;;;;5.38;0.98;;;;;;;;;;5053336;28;20033;-66
2022/06/10 09:06:27;;;;;;;3.97;1.15;;;;;;;;;;5053576;28;20104;-66
2022/06/10 09:08:55;;;;;;;2.50;1.30;;;;;;;;;;5056265;28;20473;-66
2022/06/10 09:11:36;;;;;;;4.60;1.35;;;;;;;;;;5057029;28;20009;-66
2022/06/10 09:14:17;;;;;;;4.00;1.30;;;;;;;;;;5061415;28;20024;-67
2022/06/10 09:16:50;;;;;;;2.95;1.60;;;;;;;;;;5054001;28;20017;-67
2022/06/10 09:19:16;;;;;;;;;;;;;;;;;;5052525;28;20053;-67
2022/06/10 09:21:51;;;;;;;2.38;1.40;;;;;;;;;;5052374;28;19954;-66
2022/06/10 09:24:36;;;;;;;4.22;1.58;;;;;;;;;;5052059;28;20017;-67
2022/06/10 09:27:21;;;;;;;3.83;1.63;;;;;;;;;;5054059;28;20035;-66
2022/06/10 09:29:47;;;;;;;3.70;1.48;;;;;;;;;;5055009;28;20516;-66
2022/06/10 09:32:22;;;;;;;4.68;1.88;;;;;;;;;;5061872;28;20052;-66
2022/06/10 09:34:52;;;;;;;5.25;1.65;;;;;;;;;;5053226;28;20029;-66
2022/06/10 09:37:25;;;;;;;9.68;1.80;;;;;;;;;;5052991;28;20068;-66
2022/06/10 09:42:47;;;;;;;3.55;1.58;;;;;;;;;;5059857;28;20544;-66
2022/06/10 09:45:22;;;;;;;4.00;1.27;;;;;;;;;;5054692;28;20565;-66
2022/06/10 09:48:00;;;;;;;5.60;1.30;;;;;;;;;;5056272;28;20028;-66
2022/06/10 09:50:31;;;;;;;6.65;2.03;;;;;;;;;;5056477;28;20489;-66
2022/06/10 09:53:06;;;;;;;6.28;2.05;;;;;;;;;;5055836;28;20045;-66
2022/06/10 09:55:50;;;;;;;11.40;2.63;;;;;;;;;;5054807;28;20476;-66
2022/06/10 09:58:36;;;;;;;7.65;2.60;;;;;;;;;;5054470;28;20041;-66
2022/06/10 10:01:13;;;;;;;10.00;3.20;;;;;;;;;;5057419;28;20484;-66
2022/06/10 10:03:45;;;;;;;10.77;2.88;;;;;;;;;;5054964;28;20116;-66
2022/06/10 10:06:34;;;;;;;9.15;2.83;;;;;;;;;;5054712;28;20078;-66
2022/06/10 10:09:10;;;;;;;11.73;3.63;;;;;;;;;;5054020;28;20025;-66
2022/06/10 10:11:45;;;;;;;8.73;2.65;;;;;;;;;;5054778;28;20033;-66
2022/06/10 10:14:27;;;;;;;12.85;3.17;;;;;;;;;;5054845;28;20071;-68
2022/06/10 10:17:00;;;;;;;14.37;3.17;;;;;;;;;;5057792;28;20499;-68
2022/06/10 10:19:29;;;;;;;11.77;2.85;;;;;;;;;;5056928;28;20032;-68
2022/06/10 10:22:04;;;;;;;13.35;3.15;;;;;;;;;;5055234;28;20499;-68
2022/06/10 10:24:34;;;;;;;10.20;2.85;;;;;;;;;;5052138;28;20025;-68
2022/06/10 10:27:00;;;;;;;11.38;2.80;;;;;;;;;;5052314;28;20037;-68
2022/06/10 10:29:30;;;;;;;11.73;3.17;;;;;;;;;;5052529;28;20136;-68
2022/06/10 10:32:00;;;;;;;14.57;2.80;;;;;;;;;;5052990;28;20945;-68
2022/06/10 10:34:27;;;;;;;12.40;3.45;;;;;;;;;;5051131;28;20078;-68
2022/06/10 10:36:55;;;;;;;10.48;2.97;;;;;;;;;;5056635;28;20046;-68
2022/06/10 10:39:30;;;;;;;14.05;2.95;;;;;;;;;;5049972;28;20397;-68
2022/06/10 10:42:13;;;;;;;12.48;3.30;;;;;;;;;;5055308;28;20024;-68
2022/06/10 10:44:42;;;;;;;11.40;3.03;;;;;;;;;;5060173;28;20017;-68
2022/06/10 10:47:12;;;;;;;12.75;3.10;;;;;;;;;;5058039;28;20024;-67
2022/06/10 10:49:54;;;;;;;14.43;3.40;;;;;;;;;;5057116;28;20067;-67
2022/06/10 10:52:22;;;;;;;12.18;3.47;;;;;;;;;;5055426;28;20021;-67
2022/06/10 10:54:51;;;;;;;9.93;2.83;;;;;;;;;;5056500;28;20021;-67
2022/06/10 10:57:46;;;;;;;13.77;3.10;;;;;;;;;;5051684;28;20052;-67
2022/06/10 11:00:12;;;;;;;8.55;2.65;;;;;;;;;;5047782;28;20052;-68
2022/06/10 11:02:40;;;;;;;13.07;2.65;;;;;;;;;;5051476;28;20112;-68
2022/06/10 11:05:12;;;;;;;10.80;3.08;;;;;;;;;;5052615;28;20057;-67
2022/06/10 11:07:38;;;;;;;11.75;2.38;;;;;;;;;;5050539;28;20025;-67
2022/06/10 11:10:09;;;;;;;10.27;3.05;;;;;;;;;;5050317;28;20024;-67
2022/06/10 11:12:35;;;;;;;14.43;3.00;;;;;;;;;;5051716;28;20028;-67
2022/06/10 11:15:03;;;;;;;10.00;2.72;;;;;;;;;;5060073;28;20035;-68
2022/06/10 11:17:30;;;;;;;11.45;2.65;;;;;;;;;;5054335;28;20053;-68
2022/06/10 11:19:56;;;;;;;11.68;2.95;;;;;;;;;;5057457;28;20025;-67
2022/06/10 11:22:23;;;;;;;15.52;3.30;;;;;;;;;;5058140;28;20108;-67
2022/06/10 11:24:52;;;;;;;13.32;2.88;;;;;;;;;;5057761;28;20021;-67
2022/06/10 11:27:21;;;;;;;10.98;3.30;;;;;;;;;;5054300;28;20017;-68
2022/06/10 11:30:01;;;;;;;11.32;3.22;;;;;;;;;;5059670;28;20029;-68
2022/06/10 11:32:30;;;;;;;15.05;3.55;;;;;;;;;;5058994;28;20078;-67
2022/06/10 11:35:02;;;;;;;13.65;3.17;;;;;;;;;;5059332;28;20025;-69
2022/06/10 11:37:40;;;;;;;13.50;3.08;;;;;;;;;;5055903;28;20032;-68
2022/06/10 11:40:15;;;;;;;17.23;3.63;;;;;;;;;;5061150;28;20058;-69
2022/06/10 11:43:04;;;;;;;14.90;3.88;;;;;;;;;;5053761;28;20432;-68
2022/06/10 11:45:38;;;;;;;14.52;3.72;;;;;;;;;;5054039;28;20483;-69
2022/06/10 11:48:11;;;;;;;17.25;4.07;;;;;;;;;;5061798;28;20427;-69
2022/06/10 11:50:47;;;;;;;21.10;4.03;;;;;;;;;;5055798;28;20036;-70
2022/06/10 11:53:16;;;;;;;22.65;3.78;;;;;;;;;;5057752;28;20037;-69
2022/06/10 11:55:45;;;;;;;17.95;4.18;;;;;;;;;;5054374;28;20036;-69
2022/06/10 12:01:26;;;;;;;19.88;4.43;;;;;;;;;;5054028;28;20043;-69
2022/06/10 12:03:56;;;;;;;14.60;3.88;;;;;;;;;;5057365;28;20473;-69
2022/06/10 12:06:27;;;;;;;15.15;3.63;;;;;;;;;;5055727;28;20029;-69
2022/06/10 12:08:53;;;;;;;14.20;3.70;;;;;;;;;;5056312;28;20107;-70
2022/06/10 12:11:19;;;;;;;20.55;3.95;;;;;;;;;;5058666;28;20037;-70
2022/06/10 12:13:51;;;;;;;19.02;4.90;;;;;;;;;;5058217;28;20029;-69
2022/06/10 12:16:17;;;;;;;20.77;4.57;;;;;;;;;;5054739;28;20107;-69
2022/06/10 12:18:48;;;;;;;29.40;4.80;;;;;;;;;;5056428;28;20706;-69
2022/06/10 12:21:17;;;;;;;26.20;4.55;;;;;;;;;;5063083;28;20119;-69
2022/06/10 12:23:45;;;;;;;18.10;4.10;;;;;;;;;;5054689;28;20079;-69
2022/06/10 12:26:30;;;;;;;20.23;4.30;;;;;;;;;;5062086;28;20025;-69
2022/06/10 12:29:13;;;;;;;18.77;4.93;;;;;;;;;;5056640;28;20025;-69
2022/06/10 12:31:58;;;;;;;20.35;4.35;;;;;;;;;;5055996;28;20093;-70
2022/06/10 12:34:24;;;;;;;15.45;4.10;;;;;;;;;;5055141;28;20033;-69
2022/06/10 12:36:56;;;;;;;13.82;4.13;;;;;;;;;;5060112;28;20039;-69
2022/06/10 12:39:23;;;;;;;18.92;4.65;;;;;;;;;;5057292;28;20393;-69
2022/06/10 12:41:53;;;;;;;16.52;3.72;;;;;;;;;;5058018;28;20036;-69
2022/06/10 12:44:22;;;;;;;15.88;4.55;;;;;;;;;;5055344;28;20127;-69
2022/06/10 12:46:52;;;;;;;21.35;4.38;;;;;;;;;;5054376;28;20029;-69
2022/06/10 12:49:30;;;;;;;19.13;4.32;;;;;;;;;;5055965;28;20058;-69
2022/06/10 12:52:05;;;;;;;20.15;4.80;;;;;;;;;;5055413;28;20040;-69
2022/06/10 12:54:41;;;;;;;19.90;4.35;;;;;;;;;;5054866;28;20484;-69
2022/06/10 12:57:26;;;;;;;25.27;5.00;;;;;;;;;;5052559;28;20669;-69
2022/06/10 13:00:13;;;;;;;23.33;4.57;;;;;;;;;;5053372;28;20825;-69
2022/06/10 13:02:47;;;;;;;27.65;5.03;;;;;;;;;;5055052;28;20032;-69
2022/06/10 13:05:31;;;;;;;21.42;4.68;;;;;;;;;;5055671;28;20494;-69
2022/06/10 13:07:58;;;;;;;23.42;5.43;;;;;;;;;;5054366;28;20036;-69
2022/06/10 13:10:30;;;;;;;23.30;5.53;;;;;;;;;;5054242;28;20013;-69
2022/06/10 13:12:56;;;;;;;;;;;;;;;;;;5057530;28;20025;-69
2022/06/10 13:15:29;;;;;;;27.20;4.60;;;;;;;;;;5055252;28;20395;-69
2022/06/10 13:18:03;;;;;;;24.98;4.85;;;;;;;;;;5052985;28;20087;-69
2022/06/10 13:20:29;;;;;;;18.45;4.57;;;;;;;;;;5053433;28;20265;-69
2022/06/10 13:23:13;;;;;;;24.88;5.68;;;;;;;;;;5058420;28;20060;-69
2022/06/10 13:25:39;;;;;;;29.50;4.80;;;;;;;;;;5052733;28;20017;-69
2022/06/10 13:28:17;;;;;;;25.60;4.78;;;;;;;;;;5055628;28;20107;-69
2022/06/10 13:30:43;;;;;;;18.73;4.82;;;;;;;;;;5058522;28;20033;-69
2022/06/10 13:33:15;;;;;;;31.90;6.07;;;;;;;;;;5054006;28;20021;-69
2022/06/10 13:35:44;;;;;;;26.48;5.03;;;;;;;;;;5052104;28;20056;-69
2022/06/10 13:38:15;;;;;;;31.23;5.45;;;;;;;;;;5053271;28;20029;-69
2022/06/10 13:40:46;;;;;;;19.05;5.03;;;;;;;;;;5055379;28;20040;-69
2022/06/10 13:43:20;;;;;;;28.25;5.07;;;;;;;;;;5055345;28;20052;-69
2022/06/10 13:45:46;;;;;;;24.13;5.00;;;;;;;;;;5052499;28;20056;-69
2022/06/10 13:48:17;;;;;;;25.42;4.80;;;;;;;;;;5052805;28;20017;-69
2022/06/10 13:53:22;;;;;;;31.67;6.40;;;;;;;;;;5054942;28;20028;-69
2022/06/10 13:56:02;;;;;;;22.42;4.57;;;;;;;;;;5055521;28;20037;-69
2022/06/10 13:58:30;;;;;;;22.17;5.47;;;;;;;;;;5053736;28;20061;-69
2022/06/10 14:00:56;;;;;;;33.17;6.43;;;;;;;;;;5054900;28;20032;-69
2022/06/10 14:03:25;;;;;;;29.33;6.55;;;;;;;;;;5056274;28;20032;-69
2022/06/10 14:05:59;;;;;;;22.08;5.13;;;;;;;;;;5054975;28;20457;-69
2022/06/10 14:08:27;;;;;;;25.50;5.88;;;;;;;;;;5056985;28;20024;-69
2022/06/10 14:10:53;;;;;;;24.88;4.93;;;;;;;;;;5054953;28;20063;-69
2022/06/10 14:13:24;;;;;;;24.40;5.18;;;;;;;;;;5054751;28;20029;-69
2022/06/10 14:15:55;;;;;;;25.38;5.47;;;;;;;;;;5053498;28;20392;-69
2022/06/10 14:18:23;;;;;;;23.13;5.22;;;;;;;;;;5054747;28;20078;-69
2022/06/10 14:20:50;;;;;;;24.60;5.72;;;;;;;;;;5052887;28;20100;-69
2022/06/10 14:23:33;;;;;;;23.98;4.57;;;;;;;;;;5053263;28;20118;-69
2022/06/10 14:26:00;;;;;;;20.98;4.57;;;;;;;;;;5051225;28;20374;-69
2022/06/10 14:28:27;;;;;;;25.75;5.50;;;;;;;;;;5053498;28;20039;-69
2022/06/10 14:30:55;;;;;;;24.02;5.03;;;;;;;;;;5053610;28;20116;-69
2022/06/10 14:33:26;;;;;;;23.63;4.95;;;;;;;;;;5053530;28;20025;-69
2022/06/10 14:35:52;;;;;;;22.40;4.95;;;;;;;;;;5052209;28;20036;-69
2022/06/10 14:38:20;;;;;;;23.20;4.55;;;;;;;;;;5052086;28;20037;-69
2022/06/10 14:40:58;;;;;;;26.73;4.38;;;;;;;;;;5053581;28;20028;-69
2022/06/10 14:43:26;;;;;;;27.95;4.95;;;;;;;;;;5052609;28;20032;-69
2022/06/10 14:46:10;;;;;;;22.77;4.57;;;;;;;;;;5050629;28;20017;-69
2022/06/10 14:48:41;;;;;;;27.83;5.68;;;;;;;;;;5054936;28;20025;-69
2022/06/10 14:51:08;;;;;;;26.33;4.78;;;;;;;;;;5051568;28;20036;-69
2022/06/10 14:53:34;;;;;;;24.00;5.30;;;;;;;;;;5053262;28;20366;-69
2022/06/10 14:56:00;;;;;;;23.40;4.85;;;;;;;;;;5059168;28;20025;-69
2022/06/10 14:58:26;;;;;;;20.75;3.58;;;;;;;;;;5052354;28;20041;-69
2022/06/10 15:00:53;;;;;;;18.05;4.43;;;;;;;;;;5050770;28;20032;-69
2022/06/10 15:03:21;;;;;;;20.10;3.90;;;;;;;;;;5052698;28;20472;-69
2022/06/10 15:08:33;;;;;;;15.38;4.22;;;;;;;;;;5049411;28;20025;-69
2022/06/10 15:10:59;;;;;;;24.00;4.47;;;;;;;;;;5049413;28;20017;-69
2022/06/10 15:13:36;;;;;;;20.80;4.07;;;;;;;;;;5050373;28;20128;-70
2022/06/10 15:16:03;;;;;;;21.95;4.18;;;;;;;;;;5050736;28;20037;-70
2022/06/10 15:18:30;;;;;;;13.85;3.17;;;;;;;;;;5054623;28;20317;-69
2022/06/10 15:20:58;;;;;;;18.67;3.60;;;;;;;;;;5049617;28;20025;-70